CheckWX is a tool to help pilots better visualize weather data.  It is not intended as a substitute for an official pre-flight weather briefing.

06:52:25 UTC

EGUN TAF
RAF Mildenhall Airport
Mildenhall, United Kingdom
TAF EGUN 310400Z 3104/0110 04012KT 9999 BKN040 QNH3038INS BECMG 0101/0102 VRB06KT 5000 BR SKC QNH3028INS BECMG 0108/0109 25006KT 9999 NSW BKN020 QNH3025INS TX09/3116Z TNM01/0103Z

Mar-31@
04:00 UTC

Mar-31 @ 04:00 UTC

Apr-1@
01:00 UTC

Apr-1 @ 01:00 UTC

TAF EGUN 310400Z 3104/0110 04012KT 9999 BKN040 QNH3038INS
Wind
  • 040° at 12 KTS
Cloud Levels
  • Broken at 4,000' AGL

Apr-1@
01:00 UTC

Apr-1 @ 01:00 UTC

Apr-1@
08:00 UTC

Apr-1 @ 08:00 UTC

BECMG 0101/0102 VRB06KT 5000 BR SKC QNH3028INS

Becoming

Becoming Conditions expected by Wed, Apr 1, 2020 @ 02:00 UTC

Wind
  • Variable at 6 KTS
Conditions
Mist
Cloud Levels
  • Clear skies

Apr-1@
08:00 UTC

Apr-1 @ 08:00 UTC

Apr-1@
10:00 UTC

Apr-1 @ 10:00 UTC

BECMG 0108/0109 25006KT 9999 NSW BKN020 QNH3025INS TX09/3116Z TNM01/0103Z

Becoming

Becoming Conditions expected by Wed, Apr 1, 2020 @ 09:00 UTC

Wind
  • 250° at 6 KTS
Conditions
No significant weather
Cloud Levels
  • Broken at 2,000' AGL